Lauder Hill, Florida
Current Conditions -  °F | °C
As of 10:53 AM on Friday 31 Oct 2014 (Local Time) from KFXE Reporting Station
Scattered Clouds Scattered Clouds  
Wind Chill: 80°   Ceiling: Unl
Heat Index: 82°   Visibility: 10mi
Dew Point: 67°   Wind: 12mph
Humidity: 64%   Direction: 270°W
Pressure: 29.87"   Gusts: NA
Location:  26.2125°N, 80.2701°W
Report Text: KFXE 311453Z 27010KT 10SM SCT040 27/19 A2987 RMK AO2 SLP118 T02670194 50006
Loading
Personal Weather Stations






























Interactive Weather Map
Tropical Storm Tracking
New forecast layout! Learn more

10-Day Weather Forecast

Advertisements
Track Severe Weather on mobile